Malé International Airport (MLE/VRMM)




Flight Aircraft Arriving
CPX979 B763
OKBK - Kuwait International Airport
Kuwait Kuwait City, Kuwait
Flight Aircraft Departing
CPX998 B763
FIMP - Sir Seewoosagur Ramgoolam International Airport
Mauritius Mauritius, Mauritius
Airport Information
Location: Male, MV
Coordinates: 4.19167 / 73.5292
Elevation:
Time Offset:
Local Time:
UTC Time:
Jet A Price: $1.2/lbs

Current Weather
METAR: VRMM 050700Z 09006KT 9999 SCT018 BKN280 32/26 Q1013 NOSIG
TAF: TAF VRMM 050500Z 0506/0612 09009KT 9999 FEW018 TEMPO 0506/0512 FEW018CB

Recent Arrivals
Date Flight Type Depart
03/31/2020 CPX998 B763 Sir Seewoosagur Ramgoolam International Airport (FIMP)
12/22/2019 CPX998 B763 Sir Seewoosagur Ramgoolam International Airport (FIMP)
11/18/2019 CPX998 B763 Sir Seewoosagur Ramgoolam International Airport (FIMP)
Recent Departures
Date Flight Type Arrive
03/31/2020 CPX979 B763 Kuwait International Airport (OKBK)
12/23/2019 CPX979 B763 Kuwait International Airport (OKBK)
11/18/2019 CPX979 B763 Kuwait International Airport (OKBK)